createdAt,value
2023-01-19T00:01:08.354Z,-1.28
2023-01-19T00:03:34.657Z,-1.10
2023-01-19T00:06:01.018Z,-0.99
2023-01-19T00:08:27.387Z,-1.04
2023-01-19T00:10:53.788Z,-1.17
2023-01-19T00:13:20.133Z,-1.21
2023-01-19T00:15:46.450Z,-1.24
2023-01-19T00:18:12.780Z,-1.26
2023-01-19T00:20:39.161Z,-1.32
2023-01-19T00:23:07.693Z,-1.17
2023-01-19T00:25:34.056Z,-1.20
2023-01-19T00:28:01.799Z,-1.25
2023-01-19T00:30:28.286Z,-1.29
2023-01-19T00:32:54.605Z,-1.23
2023-01-19T00:35:20.910Z,-1.37
2023-01-19T00:37:47.253Z,-1.44
2023-01-19T00:40:14.187Z,-1.43
2023-01-19T00:42:40.588Z,-1.50
2023-01-19T00:45:06.902Z,-1.51
2023-01-19T00:47:33.445Z,-1.51
2023-01-19T00:49:59.781Z,-1.77
2023-01-19T00:52:26.150Z,-1.71
2023-01-19T00:54:52.578Z,-1.74
2023-01-19T00:57:19.360Z,-1.68
2023-01-19T00:59:45.756Z,-1.73
2023-01-19T01:02:12.310Z,-1.72
2023-01-19T01:04:38.699Z,-1.78
2023-01-19T01:07:05.039Z,-1.93
2023-01-19T01:09:31.348Z,-1.87
2023-01-19T01:11:57.656Z,-1.96
2023-01-19T01:14:26.206Z,-2.28
2023-01-19T01:16:52.746Z,-2.25
2023-01-19T01:19:19.575Z,-2.12
2023-01-19T01:21:45.893Z,-2.03
2023-01-19T01:24:12.224Z,-2.22
2023-01-19T01:26:38.580Z,-2.13
2023-01-19T01:29:04.932Z,-2.17
2023-01-19T01:31:31.746Z,-2.33
2023-01-19T01:33:58.080Z,-2.17
2023-01-19T01:36:24.539Z,-2.23
2023-01-19T01:38:51.085Z,-2.25
2023-01-19T01:41:17.393Z,-2.25
2023-01-19T01:43:44.019Z,-2.33
2023-01-19T01:46:11.149Z,-2.39
2023-01-19T01:48:37.555Z,-2.27
2023-01-19T01:51:22.595Z,-2.20
2023-01-19T01:53:48.909Z,-2.32
2023-01-19T01:56:15.230Z,-2.43
2023-01-19T01:58:41.537Z,-2.54
2023-01-19T02:01:26.824Z,-2.57
2023-01-19T02:03:55.670Z,-2.50
2023-01-19T02:06:22.402Z,-2.58
2023-01-19T02:09:07.696Z,-2.53
2023-01-19T02:11:52.565Z,-2.72
2023-01-19T02:14:21.698Z,-2.68
2023-01-19T02:16:48.085Z,-2.68
2023-01-19T02:19:14.491Z,-2.76
2023-01-19T02:21:42.942Z,-2.78
2023-01-19T02:24:09.275Z,-2.73
2023-01-19T02:26:35.608Z,-2.63
2023-01-19T02:29:01.924Z,-2.72
2023-01-19T02:31:28.237Z,-2.67
2023-01-19T02:33:54.632Z,-2.80
2023-01-19T02:36:20.967Z,-2.89
2023-01-19T02:38:47.275Z,-2.88
2023-01-19T02:41:13.611Z,-2.90
2023-01-19T02:43:39.942Z,-3.01
2023-01-19T02:46:06.294Z,-3.13
2023-01-19T02:48:32.697Z,-3.06
2023-01-19T02:51:00.999Z,-2.95
2023-01-19T02:53:27.315Z,-2.94
2023-01-19T02:55:53.635Z,-3.06
2023-01-19T02:58:19.969Z,-3.13
2023-01-19T03:00:46.267Z,-3.15
2023-01-19T03:03:12.597Z,-3.30
2023-01-19T03:05:38.896Z,-3.43
2023-01-19T03:08:05.238Z,-3.29
2023-01-19T03:10:31.546Z,-3.25
2023-01-19T03:12:57.849Z,-3.31
2023-01-19T03:15:24.192Z,-3.25
2023-01-19T03:17:50.503Z,-3.46
2023-01-19T03:20:16.937Z,-3.40
2023-01-19T03:22:43.264Z,-3.55
2023-01-19T03:25:09.593Z,-3.42
2023-01-19T03:27:40.725Z,-3.28
2023-01-19T03:30:07.105Z,-3.26
2023-01-19T03:32:34.083Z,-3.36
2023-01-19T03:35:00.471Z,-3.26
2023-01-19T03:37:26.781Z,-3.22
2023-01-19T03:39:53.105Z,-3.21
2023-01-19T03:42:19.432Z,-3.28
2023-01-19T03:44:45.746Z,-3.26
2023-01-19T03:47:12.134Z,-3.17
2023-01-19T03:49:38.445Z,-3.25
2023-01-19T03:52:04.769Z,-3.28
2023-01-19T03:54:31.085Z,-3.29
2023-01-19T03:56:57.446Z,-3.58
2023-01-19T03:59:23.770Z,-3.55
2023-01-19T04:01:50.141Z,-3.48
2023-01-19T04:04:16.500Z,-3.51
2023-01-19T04:06:42.838Z,-3.38
2023-01-19T04:09:09.195Z,-3.40
2023-01-19T04:11:35.504Z,-3.38
2023-01-19T04:14:01.842Z,-3.43
2023-01-19T04:16:28.563Z,-3.59
2023-01-19T04:18:54.904Z,-3.74
2023-01-19T04:21:21.215Z,-3.67
2023-01-19T04:23:47.552Z,-3.68
2023-01-19T04:26:13.929Z,-3.59
2023-01-19T04:28:40.254Z,-3.52
2023-01-19T04:31:06.637Z,-3.59
2023-01-19T04:33:33.013Z,-3.59
2023-01-19T04:35:59.351Z,-3.71
2023-01-19T04:38:25.735Z,-3.91
2023-01-19T04:40:52.855Z,-3.95
2023-01-19T04:43:19.246Z,-3.84
2023-01-19T04:45:45.561Z,-3.86
2023-01-19T04:48:11.978Z,-3.81
2023-01-19T04:50:38.541Z,-3.82
2023-01-19T04:53:04.873Z,-3.87
2023-01-19T04:55:31.219Z,-4.16
2023-01-19T04:57:58.002Z,-4.16
2023-01-19T05:00:24.327Z,-4.29
2023-01-19T05:02:50.723Z,-4.13
2023-01-19T05:05:18.353Z,-4.32
2023-01-19T05:07:44.696Z,-4.29
2023-01-19T05:10:11.014Z,-4.18
2023-01-19T05:12:37.705Z,-4.17
2023-01-19T05:15:04.425Z,-4.09
2023-01-19T05:17:31.007Z,-4.07
2023-01-19T05:19:57.330Z,-4.08
2023-01-19T05:22:23.650Z,-4.06
2023-01-19T05:24:49.980Z,-4.20
2023-01-19T05:27:16.312Z,-4.19
2023-01-19T05:29:42.623Z,-4.12
2023-01-19T05:32:08.968Z,-4.19
2023-01-19T05:34:35.277Z,-4.13
2023-01-19T05:37:01.613Z,-4.24
2023-01-19T05:39:28.698Z,-4.28
2023-01-19T05:41:55.014Z,-4.18
2023-01-19T05:44:22.329Z,-4.10
2023-01-19T05:46:48.669Z,-4.24
2023-01-19T05:49:14.982Z,-4.24
2023-01-19T05:51:45.460Z,-4.41
2023-01-19T05:54:11.855Z,-4.36
2023-01-19T05:56:39.502Z,-4.41
2023-01-19T05:59:05.825Z,-4.48
2023-01-19T06:01:33.290Z,-4.51
2023-01-19T06:03:59.709Z,-4.43
2023-01-19T06:06:26.015Z,-4.50
2023-01-19T06:08:52.335Z,-4.48
2023-01-19T06:11:18.727Z,-4.59
2023-01-19T06:13:45.084Z,-4.51
2023-01-19T06:16:12.097Z,-4.37
2023-01-19T06:18:38.653Z,-4.33
2023-01-19T06:21:05.698Z,-4.34
2023-01-19T06:23:32.099Z,-4.35
2023-01-19T06:25:58.491Z,-4.39
2023-01-19T06:28:25.436Z,-4.55
2023-01-19T06:30:51.783Z,-4.39
2023-01-19T06:33:18.127Z,-4.25
2023-01-19T06:35:44.472Z,-4.38
2023-01-19T06:38:10.793Z,-4.32
2023-01-19T06:40:37.106Z,-4.50
2023-01-19T06:43:03.733Z,-4.53
2023-01-19T06:45:30.178Z,-4.42
2023-01-19T06:47:56.548Z,-4.32
2023-01-19T06:50:22.865Z,-4.29
2023-01-19T06:52:49.200Z,-4.35
2023-01-19T06:55:16.509Z,-4.26
2023-01-19T06:57:42.871Z,-4.26
2023-01-19T07:00:09.307Z,-4.40
2023-01-19T07:02:35.739Z,-4.34
2023-01-19T07:05:02.181Z,-4.43
2023-01-19T07:07:28.498Z,-4.42
2023-01-19T07:09:54.960Z,-4.29
2023-01-19T07:12:21.328Z,-4.34
2023-01-19T07:14:49.531Z,-4.30
2023-01-19T07:17:15.999Z,-4.28
2023-01-19T07:19:42.567Z,-4.26
2023-01-19T07:22:08.916Z,-4.19
2023-01-19T07:24:35.786Z,-4.17
2023-01-19T07:27:02.149Z,-4.23
2023-01-19T07:29:28.575Z,-4.18
2023-01-19T07:31:54.960Z,-4.19
2023-01-19T07:34:21.609Z,-4.20
2023-01-19T07:36:47.944Z,-4.27
2023-01-19T07:39:14.261Z,-4.32
2023-01-19T07:41:40.597Z,-4.09
2023-01-19T07:44:07.144Z,-4.00
2023-01-19T07:46:33.464Z,-3.74
2023-01-19T07:48:59.767Z,-3.67
2023-01-19T07:51:27.909Z,-3.85
2023-01-19T07:53:54.242Z,-3.58
2023-01-19T07:56:20.594Z,-3.46
2023-01-19T07:58:47.016Z,-3.47
2023-01-19T08:01:13.500Z,-3.34
2023-01-19T08:03:40.086Z,-3.25
2023-01-19T08:06:06.408Z,-3.26
2023-01-19T08:08:32.752Z,-3.05
2023-01-19T08:10:59.054Z,-2.98
2023-01-19T08:13:25.399Z,-2.79
2023-01-19T08:15:51.934Z,-2.84
2023-01-19T08:18:18.420Z,-2.53
2023-01-19T08:20:44.734Z,-2.58
2023-01-19T08:23:11.085Z,-2.68
2023-01-19T08:25:37.495Z,-2.88
2023-01-19T08:28:03.822Z,-2.90
2023-01-19T08:30:30.512Z,-2.87
2023-01-19T08:33:08.318Z,-2.79
2023-01-19T08:35:35.071Z,-2.89
2023-01-19T08:38:01.795Z,-2.80
2023-01-19T08:40:28.747Z,-2.61
2023-01-19T08:42:55.231Z,-2.63
2023-01-19T08:45:21.665Z,-2.59
2023-01-19T08:47:47.972Z,-2.47
2023-01-19T08:50:14.300Z,-2.28
2023-01-19T08:52:40.601Z,-2.44
2023-01-19T08:55:07.272Z,-2.21
2023-01-19T08:59:09.314Z,-1.44
2023-01-19T09:01:47.454Z,-1.44
2023-01-19T09:04:13.905Z,-1.98
2023-01-19T09:06:40.279Z,-1.74
2023-01-19T09:09:06.623Z,-1.87
2023-01-19T09:11:33.308Z,-2.00
2023-01-19T09:13:59.706Z,-1.82
2023-01-19T09:16:27.264Z,-1.73
2023-01-19T09:18:53.975Z,-1.56
2023-01-19T09:21:20.341Z,-1.47
2023-01-19T09:23:46.661Z,-1.39
2023-01-19T09:26:13.081Z,-1.26
2023-01-19T09:28:39.798Z,-1.41
2023-01-19T09:31:06.720Z,-1.15
2023-01-19T09:33:33.278Z,-1.18
2023-01-19T09:35:59.683Z,-0.99
2023-01-19T09:38:27.121Z,-0.70
2023-01-19T09:40:53.535Z,-0.74
2023-01-19T09:43:19.900Z,-0.96
2023-01-19T09:45:46.295Z,-0.54
2023-01-19T09:48:12.669Z,-0.18
2023-01-19T09:50:39.514Z,0.17
2023-01-19T09:53:07.491Z,-0.08
2023-01-19T09:55:33.809Z,0.18
2023-01-19T09:58:00.402Z,-0.12
2023-01-19T10:00:28.114Z,0.19
2023-01-19T10:02:54.520Z,0.10
2023-01-19T10:05:20.868Z,0.32
2023-01-19T10:07:53.241Z,0.69
2023-01-19T10:10:19.810Z,0.67
2023-01-19T10:12:46.297Z,0.46
2023-01-19T10:15:12.607Z,0.41
2023-01-19T10:17:38.941Z,0.62
2023-01-19T10:20:05.802Z,0.77
2023-01-19T10:22:32.134Z,0.70
2023-01-19T10:24:58.583Z,0.90
2023-01-19T10:27:24.948Z,1.13
2023-01-19T10:29:51.255Z,0.56
2023-01-19T10:32:18.192Z,1.22
2023-01-19T10:34:44.602Z,1.30
2023-01-19T10:37:10.967Z,1.59
2023-01-19T10:39:38.780Z,1.61
2023-01-19T10:42:05.363Z,1.56
2023-01-19T10:44:31.698Z,1.89
2023-01-19T10:46:58.036Z,1.93
2023-01-19T10:49:24.368Z,1.64
2023-01-19T10:51:50.700Z,1.74
2023-01-19T10:54:17.125Z,1.92
2023-01-19T10:56:43.537Z,1.98
2023-01-19T10:59:09.932Z,2.48
2023-01-19T11:01:37.602Z,2.27
2023-01-19T11:04:05.911Z,2.46
2023-01-19T11:06:32.267Z,2.53
2023-01-19T11:08:58.605Z,2.80
2023-01-19T11:11:24.935Z,2.75
2023-01-19T11:13:51.241Z,3.00
2023-01-19T11:16:17.555Z,3.20
2023-01-19T11:18:43.920Z,3.01
2023-01-19T11:21:10.266Z,3.00
2023-01-19T11:23:42.024Z,3.09
2023-01-19T11:26:08.344Z,2.77
2023-01-19T11:28:34.690Z,2.77
2023-01-19T11:31:01.066Z,2.88
2023-01-19T11:33:27.444Z,2.69
2023-01-19T11:35:53.766Z,2.96
2023-01-19T11:38:20.235Z,3.01
2023-01-19T11:40:46.568Z,2.85
2023-01-19T11:43:12.897Z,2.65
2023-01-19T11:45:39.221Z,2.27
2023-01-19T11:48:05.600Z,2.30
2023-01-19T11:50:31.961Z,2.42
2023-01-19T11:52:58.267Z,2.43
2023-01-19T11:55:24.620Z,2.35
2023-01-19T11:57:51.958Z,2.50
2023-01-19T12:00:19.805Z,2.24
2023-01-19T12:02:46.137Z,2.07
2023-01-19T12:05:12.519Z,2.34
2023-01-19T12:07:38.828Z,2.05
2023-01-19T12:10:05.153Z,2.23
2023-01-19T12:12:31.481Z,2.15
2023-01-19T12:14:57.802Z,2.49
2023-01-19T12:17:24.191Z,2.55
2023-01-19T12:19:55.167Z,2.44
2023-01-19T12:22:21.619Z,2.37
2023-01-19T12:24:47.981Z,2.60
2023-01-19T12:27:14.300Z,2.72
2023-01-19T12:29:41.496Z,2.77
2023-01-19T12:32:08.156Z,2.68
2023-01-19T12:34:36.162Z,2.65
2023-01-19T12:37:03.578Z,2.68
2023-01-19T12:39:29.965Z,2.83
2023-01-19T12:41:57.078Z,2.94
2023-01-19T12:44:23.488Z,2.84
2023-01-19T12:46:50.232Z,2.52
2023-01-19T12:49:16.554Z,2.79
2023-01-19T12:51:42.859Z,2.82
2023-01-19T12:54:09.190Z,2.67
2023-01-19T12:56:35.530Z,2.81
2023-01-19T12:59:01.834Z,2.72
2023-01-19T13:01:28.278Z,2.56
2023-01-19T13:03:54.696Z,2.67
2023-01-19T13:06:21.017Z,2.84
2023-01-19T13:08:47.329Z,2.94
2023-01-19T13:11:13.955Z,2.86
2023-01-19T13:13:40.296Z,2.95
2023-01-19T13:16:06.633Z,2.88
2023-01-19T13:18:33.298Z,2.78
2023-01-19T13:20:59.605Z,2.71
2023-01-19T13:23:26.000Z,2.68
2023-01-19T13:25:52.408Z,2.70
2023-01-19T13:28:18.752Z,2.63
2023-01-19T13:30:45.154Z,2.71
2023-01-19T13:33:11.523Z,2.58
2023-01-19T13:35:37.828Z,2.72
2023-01-19T13:38:04.211Z,2.64
2023-01-19T13:40:30.700Z,2.65
2023-01-19T13:42:57.007Z,2.64
2023-01-19T13:45:23.314Z,2.62
2023-01-19T13:47:49.665Z,2.54
2023-01-19T13:50:15.973Z,2.45
2023-01-19T13:52:42.303Z,2.55
2023-01-19T13:55:09.484Z,2.67
2023-01-19T13:57:36.120Z,2.60
2023-01-19T14:00:02.760Z,2.71
2023-01-19T14:02:29.174Z,2.64
2023-01-19T14:04:57.299Z,2.73
2023-01-19T14:07:26.560Z,2.71
2023-01-19T14:09:55.006Z,2.77
2023-01-19T14:12:21.514Z,2.60
2023-01-19T14:14:48.396Z,2.45
2023-01-19T14:17:14.745Z,2.53
2023-01-19T14:19:41.109Z,2.46
2023-01-19T14:22:08.127Z,2.43
2023-01-19T14:24:34.509Z,2.56
2023-01-19T14:27:00.816Z,2.19
2023-01-19T14:29:27.317Z,2.30
2023-01-19T14:31:53.735Z,2.29
2023-01-19T14:34:20.070Z,2.12
2023-01-19T14:36:46.396Z,2.12
2023-01-19T14:39:12.717Z,2.08
2023-01-19T14:41:39.127Z,1.94
2023-01-19T14:44:05.493Z,1.79
2023-01-19T14:46:31.841Z,1.79
2023-01-19T14:48:58.175Z,1.76
2023-01-19T14:51:24.483Z,1.77
2023-01-19T14:53:50.806Z,1.79
2023-01-19T14:56:17.119Z,1.75
2023-01-19T14:58:43.508Z,1.70
2023-01-19T15:01:09.994Z,1.63
2023-01-19T15:03:45.395Z,1.64
2023-01-19T15:06:12.206Z,1.54
2023-01-19T15:08:39.051Z,1.55
2023-01-19T15:11:05.405Z,1.52
2023-01-19T15:13:31.723Z,1.47
2023-01-19T15:15:58.997Z,1.14
2023-01-19T15:18:26.276Z,1.19
2023-01-19T15:20:52.630Z,1.16
2023-01-19T15:23:18.953Z,1.17
2023-01-19T15:25:45.274Z,1.16
2023-01-19T15:28:11.641Z,1.12
2023-01-19T15:30:38.014Z,1.06
2023-01-19T15:33:04.324Z,0.97
2023-01-19T15:35:30.633Z,0.99
2023-01-19T15:37:57.008Z,0.87
2023-01-19T15:40:23.503Z,0.88
2023-01-19T15:42:49.884Z,0.81
2023-01-19T15:45:16.272Z,0.87
2023-01-19T15:47:42.585Z,0.86
2023-01-19T15:50:08.914Z,0.77
2023-01-19T15:52:35.227Z,0.74
2023-01-19T15:55:01.567Z,0.71
2023-01-19T15:57:27.904Z,0.56
2023-01-19T15:59:54.214Z,0.59
2023-01-19T16:02:20.686Z,0.62
2023-01-19T16:04:47.049Z,0.56
2023-01-19T16:07:13.417Z,0.60
2023-01-19T16:09:39.899Z,0.67
2023-01-19T16:12:06.259Z,0.77
2023-01-19T16:14:32.584Z,0.81
2023-01-19T16:17:00.103Z,0.90
2023-01-19T16:19:26.420Z,0.87
2023-01-19T16:21:52.751Z,0.99
2023-01-19T16:24:19.064Z,1.09
2023-01-19T16:26:45.380Z,0.99
2023-01-19T16:29:11.703Z,1.02
2023-01-19T16:31:38.069Z,1.08
2023-01-19T16:34:04.462Z,1.14
2023-01-19T16:36:30.787Z,1.57
2023-01-19T16:38:57.162Z,1.66
2023-01-19T16:41:23.471Z,1.53
2023-01-19T16:43:49.822Z,1.84
2023-01-19T16:46:16.213Z,1.77
2023-01-19T16:48:42.574Z,1.56
2023-01-19T16:51:08.884Z,1.69
2023-01-19T16:53:35.495Z,1.72
2023-01-19T16:56:01.804Z,1.92
2023-01-19T16:58:28.140Z,1.88
2023-01-19T17:00:54.537Z,2.22
2023-01-19T17:03:20.969Z,2.12
2023-01-19T17:05:47.276Z,2.11
2023-01-19T17:08:13.614Z,2.13
2023-01-19T17:10:41.876Z,2.26
2023-01-19T17:13:08.200Z,2.09
2023-01-19T17:15:34.502Z,2.08
2023-01-19T17:18:00.803Z,1.88
2023-01-19T17:20:27.104Z,2.05
2023-01-19T17:22:53.474Z,2.02
2023-01-19T17:25:19.806Z,1.75
2023-01-19T17:27:46.181Z,1.78
2023-01-19T17:30:12.782Z,1.91
2023-01-19T17:32:42.207Z,1.90
2023-01-19T17:35:08.537Z,1.92
2023-01-19T17:37:34.846Z,1.51
2023-01-19T17:40:01.267Z,1.67
2023-01-19T17:42:27.641Z,1.62
2023-01-19T17:44:54.015Z,1.52
2023-01-19T17:47:25.454Z,1.46
2023-01-19T17:49:51.757Z,1.67
2023-01-19T17:52:18.114Z,1.54
2023-01-19T17:54:44.450Z,1.63
2023-01-19T17:57:10.774Z,1.66
2023-01-19T17:59:38.957Z,1.50
2023-01-19T18:02:05.418Z,1.62
2023-01-19T18:04:32.314Z,1.67
2023-01-19T18:06:58.676Z,1.68
2023-01-19T18:09:24.999Z,1.69
2023-01-19T18:11:51.330Z,1.66
2023-01-19T18:14:17.679Z,1.75
2023-01-19T18:16:43.988Z,1.63
2023-01-19T18:19:10.289Z,1.53
2023-01-19T18:21:37.421Z,1.23
2023-01-19T18:24:03.783Z,1.33
2023-01-19T18:26:30.136Z,1.32
2023-01-19T18:28:56.865Z,1.32
2023-01-19T18:31:23.362Z,1.36
2023-01-19T18:33:49.700Z,1.04
2023-01-19T18:36:16.083Z,1.24
2023-01-19T18:38:42.843Z,1.29
2023-01-19T18:41:09.239Z,1.12
2023-01-19T18:43:35.784Z,1.15
2023-01-19T18:46:02.194Z,1.09
2023-01-19T18:48:28.608Z,1.04
2023-01-19T18:50:55.042Z,1.03
2023-01-19T18:53:21.345Z,0.84
2023-01-19T18:55:47.671Z,0.76
2023-01-19T18:58:13.995Z,0.84
2023-01-19T19:00:40.334Z,0.72
2023-01-19T19:03:10.338Z,0.86
2023-01-19T19:05:36.706Z,0.96
2023-01-19T19:08:03.159Z,1.07
2023-01-19T19:10:29.482Z,1.21
2023-01-19T19:12:55.804Z,1.23
2023-01-19T19:15:22.126Z,1.22
2023-01-19T19:17:48.451Z,1.16
2023-01-19T19:20:14.989Z,1.09
2023-01-19T19:22:41.548Z,1.17
2023-01-19T19:25:07.881Z,1.16
2023-01-19T19:27:34.233Z,1.06
2023-01-19T19:30:00.576Z,0.96
2023-01-19T19:32:26.945Z,0.99
2023-01-19T19:34:53.349Z,0.88
2023-01-19T19:37:19.702Z,0.97
2023-01-19T19:39:46.039Z,0.98
2023-01-19T19:42:12.406Z,1.08
2023-01-19T19:44:38.769Z,1.09
2023-01-19T19:47:05.181Z,1.15
2023-01-19T19:49:31.495Z,0.77
2023-01-19T19:51:57.956Z,0.94
2023-01-19T19:54:24.277Z,0.88
2023-01-19T19:56:52.164Z,1.07
2023-01-19T19:59:18.538Z,1.12
2023-01-19T20:01:47.191Z,1.20
2023-01-19T20:04:13.780Z,1.27
2023-01-19T20:06:40.199Z,1.20
2023-01-19T20:09:06.703Z,1.10
2023-01-19T20:11:33.017Z,1.13
2023-01-19T20:13:59.538Z,1.16
2023-01-19T20:16:26.005Z,1.17
2023-01-19T20:18:54.138Z,1.11
2023-01-19T20:21:20.624Z,1.21
2023-01-19T20:23:46.975Z,1.28
2023-01-19T20:26:13.314Z,1.24
2023-01-19T20:28:39.637Z,1.07
2023-01-19T20:31:05.975Z,1.25
2023-01-19T20:33:32.306Z,1.24
2023-01-19T20:35:58.640Z,1.28
2023-01-19T20:38:24.979Z,1.21
2023-01-19T20:40:51.316Z,1.22
2023-01-19T20:43:17.667Z,1.19
2023-01-19T20:45:45.187Z,1.17
2023-01-19T20:48:11.560Z,1.12
2023-01-19T20:50:37.869Z,1.20
2023-01-19T20:53:04.171Z,1.33
2023-01-19T20:55:30.512Z,1.32
2023-01-19T20:57:56.865Z,1.35
2023-01-19T21:00:23.191Z,1.41
2023-01-19T21:02:49.541Z,1.42
2023-01-19T21:05:15.902Z,1.40
2023-01-19T21:07:42.209Z,1.42
2023-01-19T21:10:08.511Z,1.40
2023-01-19T21:12:34.832Z,1.41
2023-01-19T21:15:01.219Z,1.38
2023-01-19T21:17:27.541Z,1.35
2023-01-19T21:19:53.918Z,1.35
2023-01-19T21:22:20.295Z,1.33
2023-01-19T21:24:46.682Z,1.28
2023-01-19T21:27:13.006Z,1.38
2023-01-19T21:29:40.849Z,1.30
2023-01-19T21:32:07.204Z,1.17
2023-01-19T21:34:33.525Z,0.94
2023-01-19T21:36:59.835Z,1.01
2023-01-19T21:39:26.421Z,1.05
2023-01-19T21:41:52.797Z,1.18
2023-01-19T21:44:19.120Z,1.22
2023-01-19T21:46:45.522Z,1.10
2023-01-19T21:49:11.816Z,1.14
2023-01-19T21:51:38.213Z,1.01
2023-01-19T21:54:04.646Z,1.15
2023-01-19T21:56:31.048Z,1.19
2023-01-19T21:58:57.474Z,1.08
2023-01-19T22:01:23.974Z,1.13
2023-01-19T22:03:50.389Z,1.16
2023-01-19T22:06:16.759Z,1.13
2023-01-19T22:08:44.846Z,1.18
2023-01-19T22:11:11.170Z,1.20
2023-01-19T22:13:40.578Z,1.14
2023-01-19T22:16:08.869Z,1.14
2023-01-19T22:18:36.079Z,1.05
2023-01-19T22:21:02.465Z,1.16
2023-01-19T22:23:28.924Z,0.93
2023-01-19T22:25:55.255Z,1.02
2023-01-19T22:28:21.564Z,0.92
2023-01-19T22:30:47.944Z,1.04
2023-01-19T22:33:14.291Z,1.06
2023-01-19T22:35:40.620Z,0.95
2023-01-19T22:38:07.026Z,0.87
2023-01-19T22:40:33.342Z,0.91
2023-01-19T22:42:59.663Z,0.99
2023-01-19T22:45:26.019Z,0.90
2023-01-19T22:47:52.394Z,0.95
2023-01-19T22:50:18.714Z,1.00
2023-01-19T22:52:45.021Z,1.06
2023-01-19T22:55:11.855Z,1.00
2023-01-19T22:57:39.668Z,1.01
2023-01-19T23:00:06.835Z,1.01
2023-01-19T23:02:33.156Z,1.11
2023-01-19T23:04:59.509Z,1.17
2023-01-19T23:07:25.806Z,1.04
2023-01-19T23:09:52.136Z,0.90
2023-01-19T23:12:18.472Z,0.89
2023-01-19T23:14:44.802Z,1.01
2023-01-19T23:17:11.130Z,1.01
2023-01-19T23:19:37.465Z,1.06
2023-01-19T23:22:03.784Z,0.94
2023-01-19T23:24:30.589Z,1.09
2023-01-19T23:26:56.973Z,1.12
2023-01-19T23:29:23.515Z,1.11
2023-01-19T23:31:50.022Z,1.13
2023-01-19T23:34:16.429Z,1.13
2023-01-19T23:36:42.830Z,1.12
2023-01-19T23:39:10.199Z,1.15
2023-01-19T23:41:36.501Z,1.21
2023-01-19T23:44:02.886Z,1.18
2023-01-19T23:46:29.305Z,1.28
2023-01-19T23:48:55.700Z,1.27
2023-01-19T23:51:22.021Z,1.14
2023-01-19T23:53:48.381Z,1.24
2023-01-19T23:56:14.717Z,1.23
2023-01-19T23:58:41.054Z,1.20
